sensor_id;sensor_type;location;lat;lon;timestamp;P1;durP1;ratioP1;P2;durP2;ratioP2
78542;SDS011;67836;52.430;14.446;2024-02-23T00:00:44;3.67;;;1.92;;
78542;SDS011;67836;52.430;14.446;2024-02-23T00:03:28;1.90;;;1.30;;
78542;SDS011;67836;52.430;14.446;2024-02-23T00:06:12;2.97;;;1.80;;
78542;SDS011;67836;52.430;14.446;2024-02-23T00:08:56;3.42;;;1.73;;
78542;SDS011;67836;52.430;14.446;2024-02-23T00:11:41;4.32;;;1.90;;
78542;SDS011;67836;52.430;14.446;2024-02-23T00:14:27;3.80;;;1.95;;
78542;SDS011;67836;52.430;14.446;2024-02-23T00:17:12;2.97;;;1.60;;
78542;SDS011;67836;52.430;14.446;2024-02-23T00:19:56;3.45;;;1.90;;
78542;SDS011;67836;52.430;14.446;2024-02-23T00:22:40;3.65;;;1.65;;
78542;SDS011;67836;52.430;14.446;2024-02-23T00:25:24;3.30;;;1.80;;
78542;SDS011;67836;52.430;14.446;2024-02-23T00:28:08;2.05;;;1.20;;
78542;SDS011;67836;52.430;14.446;2024-02-23T00:30:52;3.65;;;1.50;;
78542;SDS011;67836;52.430;14.446;2024-02-23T00:33:36;5.45;;;2.15;;
78542;SDS011;67836;52.430;14.446;2024-02-23T00:36:21;3.42;;;1.70;;
78542;SDS011;67836;52.430;14.446;2024-02-23T00:39:05;2.65;;;1.50;;
78542;SDS011;67836;52.430;14.446;2024-02-23T00:41:51;2.10;;;1.40;;
78542;SDS011;67836;52.430;14.446;2024-02-23T00:44:34;3.28;;;1.85;;
78542;SDS011;67836;52.430;14.446;2024-02-23T00:47:18;3.42;;;1.73;;
78542;SDS011;67836;52.430;14.446;2024-02-23T00:52:46;3.60;;;1.83;;
78542;SDS011;67836;52.430;14.446;2024-02-23T00:55:30;3.75;;;1.67;;
78542;SDS011;67836;52.430;14.446;2024-02-23T00:58:14;3.95;;;1.23;;
78542;SDS011;67836;52.430;14.446;2024-02-23T01:00:59;2.65;;;1.45;;
78542;SDS011;67836;52.430;14.446;2024-02-23T01:03:43;4.65;;;2.10;;
78542;SDS011;67836;52.430;14.446;2024-02-23T01:06:27;1.85;;;1.05;;
78542;SDS011;67836;52.430;14.446;2024-02-23T01:09:12;2.17;;;1.35;;
78542;SDS011;67836;52.430;14.446;2024-02-23T01:11:55;3.45;;;1.73;;
78542;SDS011;67836;52.430;14.446;2024-02-23T01:14:39;1.88;;;1.00;;
78542;SDS011;67836;52.430;14.446;2024-02-23T01:17:23;2.60;;;1.58;;
78542;SDS011;67836;52.430;14.446;2024-02-23T01:20:07;2.35;;;1.50;;
78542;SDS011;67836;52.430;14.446;2024-02-23T01:22:51;2.28;;;1.30;;
78542;SDS011;67836;52.430;14.446;2024-02-23T01:28:19;3.20;;;1.52;;
78542;SDS011;67836;52.430;14.446;2024-02-23T01:31:02;1.92;;;1.17;;
78542;SDS011;67836;52.430;14.446;2024-02-23T01:33:47;2.72;;;1.35;;
78542;SDS011;67836;52.430;14.446;2024-02-23T01:36:33;2.50;;;1.25;;
78542;SDS011;67836;52.430;14.446;2024-02-23T01:39:17;3.13;;;1.63;;
78542;SDS011;67836;52.430;14.446;2024-02-23T01:42:01;2.30;;;1.40;;
78542;SDS011;67836;52.430;14.446;2024-02-23T01:44:45;3.42;;;1.55;;
78542;SDS011;67836;52.430;14.446;2024-02-23T01:47:29;2.35;;;1.40;;
78542;SDS011;67836;52.430;14.446;2024-02-23T01:50:13;2.53;;;1.42;;
78542;SDS011;67836;52.430;14.446;2024-02-23T01:53:01;2.78;;;1.60;;
78542;SDS011;67836;52.430;14.446;2024-02-23T01:55:46;2.45;;;1.23;;
78542;SDS011;67836;52.430;14.446;2024-02-23T01:58:31;2.67;;;1.52;;
78542;SDS011;67836;52.430;14.446;2024-02-23T02:01:16;3.25;;;1.52;;
78542;SDS011;67836;52.430;14.446;2024-02-23T02:04:00;2.45;;;1.10;;
78542;SDS011;67836;52.430;14.446;2024-02-23T02:06:45;2.55;;;1.00;;
78542;SDS011;67836;52.430;14.446;2024-02-23T02:09:29;3.60;;;1.70;;
78542;SDS011;67836;52.430;14.446;2024-02-23T02:12:13;3.50;;;1.50;;
78542;SDS011;67836;52.430;14.446;2024-02-23T02:14:57;2.15;;;1.20;;
78542;SDS011;67836;52.430;14.446;2024-02-23T02:17:40;1.75;;;1.05;;
78542;SDS011;67836;52.430;14.446;2024-02-23T02:20:25;2.45;;;1.42;;
78542;SDS011;67836;52.430;14.446;2024-02-23T02:23:12;3.63;;;1.27;;
78542;SDS011;67836;52.430;14.446;2024-02-23T02:25:57;2.13;;;1.00;;
78542;SDS011;67836;52.430;14.446;2024-02-23T02:28:41;1.80;;;1.08;;
78542;SDS011;67836;52.430;14.446;2024-02-23T02:31:24;2.60;;;1.00;;
78542;SDS011;67836;52.430;14.446;2024-02-23T02:36:52;2.55;;;1.05;;
78542;SDS011;67836;52.430;14.446;2024-02-23T02:42:20;3.47;;;1.20;;
78542;SDS011;67836;52.430;14.446;2024-02-23T02:45:04;1.67;;;1.02;;
78542;SDS011;67836;52.430;14.446;2024-02-23T02:47:48;1.35;;;0.90;;
78542;SDS011;67836;52.430;14.446;2024-02-23T02:50:32;2.22;;;0.93;;
78542;SDS011;67836;52.430;14.446;2024-02-23T02:53:16;2.30;;;1.02;;
78542;SDS011;67836;52.430;14.446;2024-02-23T02:56:00;0.55;;;0.52;;
78542;SDS011;67836;52.430;14.446;2024-02-23T02:58:44;1.88;;;0.90;;
78542;SDS011;67836;52.430;14.446;2024-02-23T03:01:27;2.15;;;1.20;;
78542;SDS011;67836;52.430;14.446;2024-02-23T03:04:11;0.63;;;0.60;;
78542;SDS011;67836;52.430;14.446;2024-02-23T03:09:39;1.45;;;0.95;;
78542;SDS011;67836;52.430;14.446;2024-02-23T03:12:23;2.60;;;1.15;;
78542;SDS011;67836;52.430;14.446;2024-02-23T03:15:06;1.40;;;0.93;;
78542;SDS011;67836;52.430;14.446;2024-02-23T03:17:51;1.75;;;1.00;;
78542;SDS011;67836;52.430;14.446;2024-02-23T03:20:35;2.13;;;1.08;;
78542;SDS011;67836;52.430;14.446;2024-02-23T03:23:19;1.73;;;0.95;;
78542;SDS011;67836;52.430;14.446;2024-02-23T03:26:03;2.40;;;0.88;;
78542;SDS011;67836;52.430;14.446;2024-02-23T03:28:47;1.90;;;0.90;;
78542;SDS011;67836;52.430;14.446;2024-02-23T03:31:32;1.38;;;0.60;;
78542;SDS011;67836;52.430;14.446;2024-02-23T03:34:15;2.33;;;0.75;;
78542;SDS011;67836;52.430;14.446;2024-02-23T03:36:59;1.70;;;0.70;;
78542;SDS011;67836;52.430;14.446;2024-02-23T03:39:45;1.52;;;0.70;;
78542;SDS011;67836;52.430;14.446;2024-02-23T03:42:30;1.35;;;0.70;;
78542;SDS011;67836;52.430;14.446;2024-02-23T03:45:13;0.90;;;0.50;;
78542;SDS011;67836;52.430;14.446;2024-02-23T03:47:58;1.55;;;0.50;;
78542;SDS011;67836;52.430;14.446;2024-02-23T03:50:41;0.70;;;0.50;;
78542;SDS011;67836;52.430;14.446;2024-02-23T03:53:25;0.80;;;0.60;;
78542;SDS011;67836;52.430;14.446;2024-02-23T03:56:09;1.92;;;0.47;;
78542;SDS011;67836;52.430;14.446;2024-02-23T03:58:53;0.47;;;0.32;;
78542;SDS011;67836;52.430;14.446;2024-02-23T04:01:37;0.50;;;0.40;;
78542;SDS011;67836;52.430;14.446;2024-02-23T04:04:21;1.10;;;0.50;;
78542;SDS011;67836;52.430;14.446;2024-02-23T04:07:05;1.63;;;0.70;;
78542;SDS011;67836;52.430;14.446;2024-02-23T04:09:49;1.45;;;0.60;;
78542;SDS011;67836;52.430;14.446;2024-02-23T04:12:38;1.50;;;0.60;;
78542;SDS011;67836;52.430;14.446;2024-02-23T04:15:23;1.33;;;0.50;;
78542;SDS011;67836;52.430;14.446;2024-02-23T04:18:06;0.60;;;0.50;;
78542;SDS011;67836;52.430;14.446;2024-02-23T04:20:50;1.85;;;0.60;;
78542;SDS011;67836;52.430;14.446;2024-02-23T04:23:34;1.08;;;0.43;;
78542;SDS011;67836;52.430;14.446;2024-02-23T04:26:18;0.93;;;0.52;;
78542;SDS011;67836;52.430;14.446;2024-02-23T04:29:02;1.30;;;0.63;;
78542;SDS011;67836;52.430;14.446;2024-02-23T04:31:46;1.40;;;0.60;;
78542;SDS011;67836;52.430;14.446;2024-02-23T04:37:14;1.00;;;0.50;;
78542;SDS011;67836;52.430;14.446;2024-02-23T04:39:58;2.88;;;0.52;;
78542;SDS011;67836;52.430;14.446;2024-02-23T04:42:43;1.75;;;0.40;;
78542;SDS011;67836;52.430;14.446;2024-02-23T04:45:27;2.72;;;0.60;;
78542;SDS011;67836;52.430;14.446;2024-02-23T04:50:54;0.70;;;0.40;;
78542;SDS011;67836;52.430;14.446;2024-02-23T04:53:38;1.38;;;0.60;;
78542;SDS011;67836;52.430;14.446;2024-02-23T04:56:22;1.75;;;0.50;;
78542;SDS011;67836;52.430;14.446;2024-02-23T04:59:06;1.58;;;0.60;;
78542;SDS011;67836;52.430;14.446;2024-02-23T05:01:50;2.00;;;0.60;;
78542;SDS011;67836;52.430;14.446;2024-02-23T05:04:34;0.95;;;0.40;;
78542;SDS011;67836;52.430;14.446;2024-02-23T05:07:18;2.10;;;0.60;;
78542;SDS011;67836;52.430;14.446;2024-02-23T05:10:02;2.22;;;0.60;;
78542;SDS011;67836;52.430;14.446;2024-02-23T05:12:47;2.38;;;0.63;;
78542;SDS011;67836;52.430;14.446;2024-02-23T05:15:31;1.88;;;0.65;;
78542;SDS011;67836;52.430;14.446;2024-02-23T05:18:15;2.47;;;0.60;;
78542;SDS011;67836;52.430;14.446;2024-02-23T05:21:00;2.67;;;0.73;;
78542;SDS011;67836;52.430;14.446;2024-02-23T05:23:43;1.13;;;0.40;;
78542;SDS011;67836;52.430;14.446;2024-02-23T05:26:29;0.73;;;0.40;;
78542;SDS011;67836;52.430;14.446;2024-02-23T05:29:13;4.47;;;0.70;;
78542;SDS011;67836;52.430;14.446;2024-02-23T05:32:01;2.95;;;0.60;;
78542;SDS011;67836;52.430;14.446;2024-02-23T05:34:45;1.60;;;0.70;;
78542;SDS011;67836;52.430;14.446;2024-02-23T05:40:12;2.08;;;0.55;;
78542;SDS011;67836;52.430;14.446;2024-02-23T05:42:56;2.65;;;0.70;;
78542;SDS011;67836;52.430;14.446;2024-02-23T05:45:40;1.30;;;0.57;;
78542;SDS011;67836;52.430;14.446;2024-02-23T05:48:24;0.88;;;0.40;;
78542;SDS011;67836;52.430;14.446;2024-02-23T05:51:08;2.08;;;0.60;;
78542;SDS011;67836;52.430;14.446;2024-02-23T05:53:52;0.55;;;0.40;;
78542;SDS011;67836;52.430;14.446;2024-02-23T05:56:36;1.33;;;0.50;;
78542;SDS011;67836;52.430;14.446;2024-02-23T05:59:21;1.45;;;0.40;;
78542;SDS011;67836;52.430;14.446;2024-02-23T06:02:04;0.70;;;0.50;;
78542;SDS011;67836;52.430;14.446;2024-02-23T06:04:49;2.65;;;1.10;;
78542;SDS011;67836;52.430;14.446;2024-02-23T06:10:17;0.90;;;0.50;;
78542;SDS011;67836;52.430;14.446;2024-02-23T06:13:01;0.95;;;0.50;;
78542;SDS011;67836;52.430;14.446;2024-02-23T06:18:29;0.90;;;0.40;;
78542;SDS011;67836;52.430;14.446;2024-02-23T06:21:16;2.50;;;0.82;;
78542;SDS011;67836;52.430;14.446;2024-02-23T06:24:01;1.75;;;0.63;;
78542;SDS011;67836;52.430;14.446;2024-02-23T06:29:29;3.10;;;0.50;;
78542;SDS011;67836;52.430;14.446;2024-02-23T06:32:13;0.63;;;0.40;;
78542;SDS011;67836;52.430;14.446;2024-02-23T06:34:57;0.93;;;0.52;;
78542;SDS011;67836;52.430;14.446;2024-02-23T06:37:41;0.77;;;0.40;;
78542;SDS011;67836;52.430;14.446;2024-02-23T06:40:25;1.02;;;0.40;;
78542;SDS011;67836;52.430;14.446;2024-02-23T06:45:53;1.67;;;0.65;;
78542;SDS011;67836;52.430;14.446;2024-02-23T06:48:36;0.68;;;0.55;;
78542;SDS011;67836;52.430;14.446;2024-02-23T06:51:21;0.75;;;0.50;;
78542;SDS011;67836;52.430;14.446;2024-02-23T06:54:05;1.70;;;0.57;;
78542;SDS011;67836;52.430;14.446;2024-02-23T06:56:49;0.70;;;0.50;;
78542;SDS011;67836;52.430;14.446;2024-02-23T06:59:33;1.05;;;0.50;;
78542;SDS011;67836;52.430;14.446;2024-02-23T07:02:16;1.23;;;0.43;;
78542;SDS011;67836;52.430;14.446;2024-02-23T07:05:00;0.50;;;0.40;;
78542;SDS011;67836;52.430;14.446;2024-02-23T07:07:47;1.17;;;0.55;;
78542;SDS011;67836;52.430;14.446;2024-02-23T07:10:31;0.43;;;0.43;;
78542;SDS011;67836;52.430;14.446;2024-02-23T07:13:15;0.60;;;0.43;;
78542;SDS011;67836;52.430;14.446;2024-02-23T07:15:59;0.30;;;0.30;;
78542;SDS011;67836;52.430;14.446;2024-02-23T07:18:43;1.17;;;0.40;;
78542;SDS011;67836;52.430;14.446;2024-02-23T07:21:27;0.95;;;0.47;;
78542;SDS011;67836;52.430;14.446;2024-02-23T07:26:54;0.32;;;0.32;;
78542;SDS011;67836;52.430;14.446;2024-02-23T07:29:38;0.35;;;0.28;;
78542;SDS011;67836;52.430;14.446;2024-02-23T07:32:22;0.20;;;0.20;;
78542;SDS011;67836;52.430;14.446;2024-02-23T07:35:06;1.40;;;0.40;;
78542;SDS011;67836;52.430;14.446;2024-02-23T07:37:50;0.30;;;0.30;;
78542;SDS011;67836;52.430;14.446;2024-02-23T07:40:34;0.57;;;0.32;;
78542;SDS011;67836;52.430;14.446;2024-02-23T07:43:18;1.08;;;0.68;;
78542;SDS011;67836;52.430;14.446;2024-02-23T07:46:02;1.58;;;0.50;;
78542;SDS011;67836;52.430;14.446;2024-02-23T07:48:47;0.38;;;0.10;;
78542;SDS011;67836;52.430;14.446;2024-02-23T07:51:32;0.40;;;0.40;;
78542;SDS011;67836;52.430;14.446;2024-02-23T07:54:16;0.17;;;0.15;;
78542;SDS011;67836;52.430;14.446;2024-02-23T07:57:00;1.25;;;0.50;;
78542;SDS011;67836;52.430;14.446;2024-02-23T08:02:27;2.35;;;0.57;;
78542;SDS011;67836;52.430;14.446;2024-02-23T08:07:55;1.13;;;0.63;;
78542;SDS011;67836;52.430;14.446;2024-02-23T08:10:39;0.90;;;0.50;;
78542;SDS011;67836;52.430;14.446;2024-02-23T08:13:23;0.93;;;0.40;;
78542;SDS011;67836;52.430;14.446;2024-02-23T08:16:07;1.27;;;0.35;;
78542;SDS011;67836;52.430;14.446;2024-02-23T08:18:51;1.90;;;0.38;;
78542;SDS011;67836;52.430;14.446;2024-02-23T08:21:34;0.20;;;0.20;;
78542;SDS011;67836;52.430;14.446;2024-02-23T08:24:18;1.83;;;0.40;;
78542;SDS011;67836;52.430;14.446;2024-02-23T08:27:02;9.40;;;4.03;;
78542;SDS011;67836;52.430;14.446;2024-02-23T08:29:46;3.33;;;0.70;;
78542;SDS011;67836;52.430;14.446;2024-02-23T08:32:30;1.80;;;0.90;;
78542;SDS011;67836;52.430;14.446;2024-02-23T08:35:14;1.38;;;0.50;;
78542;SDS011;67836;52.430;14.446;2024-02-23T08:37:59;0.57;;;0.50;;
78542;SDS011;67836;52.430;14.446;2024-02-23T08:43:26;2.88;;;1.10;;
78542;SDS011;67836;52.430;14.446;2024-02-23T08:46:10;1.58;;;0.60;;
78542;SDS011;67836;52.430;14.446;2024-02-23T08:48:54;1.42;;;0.60;;
78542;SDS011;67836;52.430;14.446;2024-02-23T08:51:38;1.00;;;0.45;;
78542;SDS011;67836;52.430;14.446;2024-02-23T08:54:22;2.63;;;1.20;;
78542;SDS011;67836;52.430;14.446;2024-02-23T08:57:06;0.20;;;0.20;;
78542;SDS011;67836;52.430;14.446;2024-02-23T08:59:49;1.30;;;0.50;;
78542;SDS011;67836;52.430;14.446;2024-02-23T09:02:33;2.47;;;0.70;;
78542;SDS011;67836;52.430;14.446;2024-02-23T09:05:18;0.30;;;0.30;;
78542;SDS011;67836;52.430;14.446;2024-02-23T09:08:03;0.60;;;0.38;;
78542;SDS011;67836;52.430;14.446;2024-02-23T09:10:47;2.78;;;0.70;;
78542;SDS011;67836;52.430;14.446;2024-02-23T09:13:31;2.92;;;0.63;;
78542;SDS011;67836;52.430;14.446;2024-02-23T09:16:15;2.97;;;0.50;;
78542;SDS011;67836;52.430;14.446;2024-02-23T09:18:59;0.45;;;0.32;;
78542;SDS011;67836;52.430;14.446;2024-02-23T09:24:27;1.77;;;0.80;;
78542;SDS011;67836;52.430;14.446;2024-02-23T09:27:11;0.30;;;0.30;;
78542;SDS011;67836;52.430;14.446;2024-02-23T09:29:55;0.73;;;0.47;;
78542;SDS011;67836;52.430;14.446;2024-02-23T09:32:39;0.40;;;0.30;;
78542;SDS011;67836;52.430;14.446;2024-02-23T09:35:23;1.27;;;0.70;;
78542;SDS011;67836;52.430;14.446;2024-02-23T09:40:51;1.60;;;0.70;;
78542;SDS011;67836;52.430;14.446;2024-02-23T09:43:35;1.98;;;0.70;;
78542;SDS011;67836;52.430;14.446;2024-02-23T09:46:20;0.85;;;0.50;;
78542;SDS011;67836;52.430;14.446;2024-02-23T09:51:47;0.20;;;0.20;;
78542;SDS011;67836;52.430;14.446;2024-02-23T09:54:32;1.15;;;0.60;;
78542;SDS011;67836;52.430;14.446;2024-02-23T09:57:16;0.80;;;0.70;;
78542;SDS011;67836;52.430;14.446;2024-02-23T09:59:59;2.78;;;0.73;;
78542;SDS011;67836;52.430;14.446;2024-02-23T10:02:44;1.17;;;0.60;;
78542;SDS011;67836;52.430;14.446;2024-02-23T10:05:29;1.50;;;0.60;;
78542;SDS011;67836;52.430;14.446;2024-02-23T10:08:13;0.80;;;0.43;;
78542;SDS011;67836;52.430;14.446;2024-02-23T10:10:57;1.65;;;0.60;;
78542;SDS011;67836;52.430;14.446;2024-02-23T10:13:41;1.25;;;0.80;;
78542;SDS011;67836;52.430;14.446;2024-02-23T10:16:25;1.58;;;0.70;;
78542;SDS011;67836;52.430;14.446;2024-02-23T10:19:08;0.73;;;0.60;;
78542;SDS011;67836;52.430;14.446;2024-02-23T10:21:52;1.98;;;0.52;;
78542;SDS011;67836;52.430;14.446;2024-02-23T10:24:36;2.03;;;0.70;;
78542;SDS011;67836;52.430;14.446;2024-02-23T10:27:20;1.75;;;0.77;;
78542;SDS011;67836;52.430;14.446;2024-02-23T10:30:06;1.42;;;0.70;;
78542;SDS011;67836;52.430;14.446;2024-02-23T10:32:50;0.82;;;0.50;;
78542;SDS011;67836;52.430;14.446;2024-02-23T10:35:38;0.43;;;0.30;;
78542;SDS011;67836;52.430;14.446;2024-02-23T10:38:24;1.02;;;0.35;;
78542;SDS011;67836;52.430;14.446;2024-02-23T10:41:10;1.95;;;0.60;;
78542;SDS011;67836;52.430;14.446;2024-02-23T10:43:57;1.90;;;0.50;;
78542;SDS011;67836;52.430;14.446;2024-02-23T10:46:43;0.68;;;0.40;;
78542;SDS011;67836;52.430;14.446;2024-02-23T10:49:27;0.32;;;0.30;;
78542;SDS011;67836;52.430;14.446;2024-02-23T10:52:11;2.50;;;0.57;;
78542;SDS011;67836;52.430;14.446;2024-02-23T10:54:57;0.85;;;0.70;;
78542;SDS011;67836;52.430;14.446;2024-02-23T10:57:41;1.23;;;0.40;;
78542;SDS011;67836;52.430;14.446;2024-02-23T11:00:25;1.30;;;0.50;;
78542;SDS011;67836;52.430;14.446;2024-02-23T11:03:09;0.35;;;0.30;;
78542;SDS011;67836;52.430;14.446;2024-02-23T11:05:53;2.03;;;0.50;;
78542;SDS011;67836;52.430;14.446;2024-02-23T11:08:38;0.52;;;0.22;;
78542;SDS011;67836;52.430;14.446;2024-02-23T11:11:22;2.08;;;0.80;;
78542;SDS011;67836;52.430;14.446;2024-02-23T11:14:08;1.08;;;0.50;;
78542;SDS011;67836;52.430;14.446;2024-02-23T11:16:55;0.43;;;0.32;;
78542;SDS011;67836;52.430;14.446;2024-02-23T11:19:39;0.40;;;0.40;;
78542;SDS011;67836;52.430;14.446;2024-02-23T11:22:23;1.15;;;0.50;;
78542;SDS011;67836;52.430;14.446;2024-02-23T11:25:07;0.13;;;0.13;;
78542;SDS011;67836;52.430;14.446;2024-02-23T11:27:54;1.55;;;0.70;;
78542;SDS011;67836;52.430;14.446;2024-02-23T11:33:25;1.10;;;0.50;;
78542;SDS011;67836;52.430;14.446;2024-02-23T11:36:10;2.22;;;0.70;;
78542;SDS011;67836;52.430;14.446;2024-02-23T11:38:54;1.70;;;0.40;;
78542;SDS011;67836;52.430;14.446;2024-02-23T11:41:39;2.15;;;0.60;;
78542;SDS011;67836;52.430;14.446;2024-02-23T11:44:25;0.95;;;0.30;;
78542;SDS011;67836;52.430;14.446;2024-02-23T11:47:09;0.47;;;0.38;;
78542;SDS011;67836;52.430;14.446;2024-02-23T11:49:53;0.50;;;0.25;;
78542;SDS011;67836;52.430;14.446;2024-02-23T11:52:37;0.88;;;0.40;;
78542;SDS011;67836;52.430;14.446;2024-02-23T11:55:21;0.82;;;0.55;;
78542;SDS011;67836;52.430;14.446;2024-02-23T11:58:06;1.65;;;0.52;;
78542;SDS011;67836;52.430;14.446;2024-02-23T12:00:50;0.70;;;0.38;;
78542;SDS011;67836;52.430;14.446;2024-02-23T12:03:35;1.95;;;0.30;;
78542;SDS011;67836;52.430;14.446;2024-02-23T12:06:19;2.15;;;0.75;;
78542;SDS011;67836;52.430;14.446;2024-02-23T12:09:03;0.90;;;0.43;;
78542;SDS011;67836;52.430;14.446;2024-02-23T12:11:48;0.65;;;0.32;;
78542;SDS011;67836;52.430;14.446;2024-02-23T12:14:35;0.68;;;0.40;;
78542;SDS011;67836;52.430;14.446;2024-02-23T12:17:19;0.43;;;0.30;;
78542;SDS011;67836;52.430;14.446;2024-02-23T12:20:03;1.73;;;0.70;;
78542;SDS011;67836;52.430;14.446;2024-02-23T12:22:47;1.33;;;0.60;;
78542;SDS011;67836;52.430;14.446;2024-02-23T12:25:31;4.90;;;0.82;;
78542;SDS011;67836;52.430;14.446;2024-02-23T12:28:18;0.40;;;0.40;;
78542;SDS011;67836;52.430;14.446;2024-02-23T12:31:02;0.68;;;0.30;;
78542;SDS011;67836;52.430;14.446;2024-02-23T12:33:46;0.10;;;0.10;;
78542;SDS011;67836;52.430;14.446;2024-02-23T12:36:31;0.32;;;0.20;;
78542;SDS011;67836;52.430;14.446;2024-02-23T12:39:18;1.38;;;0.28;;
78542;SDS011;67836;52.430;14.446;2024-02-23T12:42:03;2.38;;;0.73;;
78542;SDS011;67836;52.430;14.446;2024-02-23T12:44:47;2.55;;;1.02;;
78542;SDS011;67836;52.430;14.446;2024-02-23T12:47:31;1.13;;;0.47;;
78542;SDS011;67836;52.430;14.446;2024-02-23T12:50:14;1.48;;;0.55;;
78542;SDS011;67836;52.430;14.446;2024-02-23T12:52:58;1.02;;;0.30;;
78542;SDS011;67836;52.430;14.446;2024-02-23T12:55:44;1.83;;;0.45;;
78542;SDS011;67836;52.430;14.446;2024-02-23T12:58:27;1.02;;;0.45;;
78542;SDS011;67836;52.430;14.446;2024-02-23T13:03:55;1.40;;;0.45;;
78542;SDS011;67836;52.430;14.446;2024-02-23T13:06:39;1.55;;;0.60;;
78542;SDS011;67836;52.430;14.446;2024-02-23T13:09:23;1.60;;;0.85;;
78542;SDS011;67836;52.430;14.446;2024-02-23T13:12:07;2.00;;;0.80;;
78542;SDS011;67836;52.430;14.446;2024-02-23T13:14:51;0.85;;;0.32;;
78542;SDS011;67836;52.430;14.446;2024-02-23T13:17:35;1.15;;;0.50;;
78542;SDS011;67836;52.430;14.446;2024-02-23T13:20:18;1.50;;;0.60;;
78542;SDS011;67836;52.430;14.446;2024-02-23T13:23:02;1.83;;;0.45;;
78542;SDS011;67836;52.430;14.446;2024-02-23T13:25:46;1.60;;;0.52;;
78542;SDS011;67836;52.430;14.446;2024-02-23T13:28:30;1.75;;;0.55;;
78542;SDS011;67836;52.430;14.446;2024-02-23T13:31:14;0.38;;;0.20;;
78542;SDS011;67836;52.430;14.446;2024-02-23T13:33:59;0.40;;;0.10;;
78542;SDS011;67836;52.430;14.446;2024-02-23T13:36:43;1.63;;;0.60;;
78542;SDS011;67836;52.430;14.446;2024-02-23T13:39:26;1.95;;;0.30;;
78542;SDS011;67836;52.430;14.446;2024-02-23T13:42:10;0.55;;;0.50;;
78542;SDS011;67836;52.430;14.446;2024-02-23T13:44:54;1.45;;;0.50;;
78542;SDS011;67836;52.430;14.446;2024-02-23T13:47:38;1.17;;;0.40;;
78542;SDS011;67836;52.430;14.446;2024-02-23T13:50:22;1.27;;;0.40;;
78542;SDS011;67836;52.430;14.446;2024-02-23T13:53:06;1.13;;;0.38;;
78542;SDS011;67836;52.430;14.446;2024-02-23T13:55:50;2.85;;;0.45;;
78542;SDS011;67836;52.430;14.446;2024-02-23T13:58:34;1.10;;;0.45;;
78542;SDS011;67836;52.430;14.446;2024-02-23T14:01:18;0.25;;;0.20;;
78542;SDS011;67836;52.430;14.446;2024-02-23T14:04:06;1.02;;;0.60;;
78542;SDS011;67836;52.430;14.446;2024-02-23T14:06:50;6.93;;;1.80;;
78542;SDS011;67836;52.430;14.446;2024-02-23T14:09:33;1.45;;;0.50;;
78542;SDS011;67836;52.430;14.446;2024-02-23T14:12:17;0.00;;;0.00;;
78542;SDS011;67836;52.430;14.446;2024-02-23T14:15:02;1.58;;;0.40;;
78542;SDS011;67836;52.430;14.446;2024-02-23T14:17:47;1.00;;;0.60;;
78542;SDS011;67836;52.430;14.446;2024-02-23T14:20:30;2.25;;;0.45;;
78542;SDS011;67836;52.430;14.446;2024-02-23T14:23:14;1.95;;;0.40;;
78542;SDS011;67836;52.430;14.446;2024-02-23T14:25:58;1.02;;;0.38;;
78542;SDS011;67836;52.430;14.446;2024-02-23T14:28:42;0.52;;;0.40;;
78542;SDS011;67836;52.430;14.446;2024-02-23T14:31:26;1.20;;;0.40;;
78542;SDS011;67836;52.430;14.446;2024-02-23T14:34:09;1.38;;;0.60;;
78542;SDS011;67836;52.430;14.446;2024-02-23T14:36:53;2.13;;;0.55;;
78542;SDS011;67836;52.430;14.446;2024-02-23T14:39:37;0.20;;;0.20;;
78542;SDS011;67836;52.430;14.446;2024-02-23T14:42:21;1.20;;;0.47;;
78542;SDS011;67836;52.430;14.446;2024-02-23T14:45:05;0.80;;;0.30;;
78542;SDS011;67836;52.430;14.446;2024-02-23T14:47:50;1.02;;;0.32;;
78542;SDS011;67836;52.430;14.446;2024-02-23T14:50:34;0.55;;;0.30;;
78542;SDS011;67836;52.430;14.446;2024-02-23T14:53:18;1.00;;;0.40;;
78542;SDS011;67836;52.430;14.446;2024-02-23T14:56:02;1.08;;;0.38;;
78542;SDS011;67836;52.430;14.446;2024-02-23T14:58:47;0.52;;;0.20;;
78542;SDS011;67836;52.430;14.446;2024-02-23T15:01:30;1.65;;;0.22;;
78542;SDS011;67836;52.430;14.446;2024-02-23T15:04:14;1.42;;;0.38;;
78542;SDS011;67836;52.430;14.446;2024-02-23T15:06:58;0.20;;;0.20;;
78542;SDS011;67836;52.430;14.446;2024-02-23T15:09:42;0.73;;;0.40;;
78542;SDS011;67836;52.430;14.446;2024-02-23T15:12:26;0.45;;;0.30;;
78542;SDS011;67836;52.430;14.446;2024-02-23T15:15:11;0.20;;;0.20;;
78542;SDS011;67836;52.430;14.446;2024-02-23T15:17:55;0.60;;;0.40;;
78542;SDS011;67836;52.430;14.446;2024-02-23T15:20:39;0.10;;;0.10;;
78542;SDS011;67836;52.430;14.446;2024-02-23T15:23:23;0.45;;;0.32;;
78542;SDS011;67836;52.430;14.446;2024-02-23T15:26:07;0.10;;;0.10;;
78542;SDS011;67836;52.430;14.446;2024-02-23T15:28:51;3.50;;;0.52;;
78542;SDS011;67836;52.430;14.446;2024-02-23T15:31:37;1.30;;;0.47;;
78542;SDS011;67836;52.430;14.446;2024-02-23T15:34:22;0.22;;;0.22;;
78542;SDS011;67836;52.430;14.446;2024-02-23T15:39:50;0.60;;;0.30;;
78542;SDS011;67836;52.430;14.446;2024-02-23T15:42:35;1.23;;;0.88;;
78542;SDS011;67836;52.430;14.446;2024-02-23T15:45:19;0.17;;;0.17;;
78542;SDS011;67836;52.430;14.446;2024-02-23T15:48:03;0.10;;;0.10;;
78542;SDS011;67836;52.430;14.446;2024-02-23T15:53:31;0.80;;;0.50;;
78542;SDS011;67836;52.430;14.446;2024-02-23T15:56:15;0.30;;;0.30;;
78542;SDS011;67836;52.430;14.446;2024-02-23T16:01:43;3.20;;;1.40;;
78542;SDS011;67836;52.430;14.446;2024-02-23T16:04:27;4.20;;;1.75;;
78542;SDS011;67836;52.430;14.446;2024-02-23T16:09:55;2.72;;;1.23;;
78542;SDS011;67836;52.430;14.446;2024-02-23T16:12:39;2.67;;;0.75;;
78542;SDS011;67836;52.430;14.446;2024-02-23T16:15:22;0.45;;;0.45;;
78542;SDS011;67836;52.430;14.446;2024-02-23T16:18:06;0.55;;;0.52;;
78542;SDS011;67836;52.430;14.446;2024-02-23T16:20:50;1.08;;;0.30;;
78542;SDS011;67836;52.430;14.446;2024-02-23T16:23:34;1.50;;;0.95;;
78542;SDS011;67836;52.430;14.446;2024-02-23T16:26:18;4.35;;;1.40;;
78542;SDS011;67836;52.430;14.446;2024-02-23T16:29:02;4.28;;;1.45;;
78542;SDS011;67836;52.430;14.446;2024-02-23T16:34:29;4.10;;;1.48;;
78542;SDS011;67836;52.430;14.446;2024-02-23T16:37:15;1.60;;;1.02;;
78542;SDS011;67836;52.430;14.446;2024-02-23T16:42:43;1.55;;;0.75;;
78542;SDS011;67836;52.430;14.446;2024-02-23T16:45:26;1.23;;;0.50;;
78542;SDS011;67836;52.430;14.446;2024-02-23T16:48:10;1.00;;;0.70;;
78542;SDS011;67836;52.430;14.446;2024-02-23T16:50:55;0.50;;;0.30;;
78542;SDS011;67836;52.430;14.446;2024-02-23T16:53:39;2.70;;;1.52;;
78542;SDS011;67836;52.430;14.446;2024-02-23T16:56:23;3.58;;;1.02;;
78542;SDS011;67836;52.430;14.446;2024-02-23T16:59:11;3.58;;;1.15;;
78542;SDS011;67836;52.430;14.446;2024-02-23T17:01:55;2.83;;;0.47;;
78542;SDS011;67836;52.430;14.446;2024-02-23T17:04:38;0.30;;;0.30;;
78542;SDS011;67836;52.430;14.446;2024-02-23T17:07:22;2.65;;;0.75;;
78542;SDS011;67836;52.430;14.446;2024-02-23T17:10:07;0.22;;;0.22;;
78542;SDS011;67836;52.430;14.446;2024-02-23T17:12:51;0.82;;;0.70;;
78542;SDS011;67836;52.430;14.446;2024-02-23T17:15:36;2.78;;;1.23;;
78542;SDS011;67836;52.430;14.446;2024-02-23T17:18:20;1.23;;;0.80;;
78542;SDS011;67836;52.430;14.446;2024-02-23T17:21:06;2.58;;;1.10;;
78542;SDS011;67836;52.430;14.446;2024-02-23T17:23:50;1.90;;;0.60;;
78542;SDS011;67836;52.430;14.446;2024-02-23T17:29:17;4.88;;;1.83;;